Time;durP1;ratioP1;P1;durP2;ratioP2;P2;SDS_P1;SDS_P2;PMS_P1;PMS_P2;Temp;Humidity;BMP_temperature;BMP_pressure;BME280_temperature;BME280_humidity;BME280_pressure;Samples;Min_cycle;Max_cycle;Signal;HPM_P1;HPM_P2
2021/03/01 00:00:27;;;;;;;7.63;4.37;;;;;;;6.53;45.39;95626.78;5012686;28;20646;-72
2021/03/01 00:02:52;;;;;;;7.57;4.70;;;;;;;6.79;44.66;95628.81;5012997;28;20645;-72
2021/03/01 00:05:20;;;;;;;9.53;5.67;;;;;;;6.64;45.64;95627.31;5012691;28;20589;-71
2021/03/01 00:07:45;;;;;;;9.93;5.27;;;;;;;6.74;44.91;95619.13;5012736;28;20181;-71
2021/03/01 00:10:11;;;;;;;11.20;5.80;;;;;;;6.63;45.55;95623.09;5012568;28;20485;-69
2021/03/01 00:12:37;;;;;;;13.53;5.37;;;;;;;6.52;44.77;95613.81;5012793;28;20235;-71
2021/03/01 00:15:06;;;;;;;11.37;5.50;;;;;;;6.79;45.24;95620.84;5012469;28;20184;-69
2021/03/01 00:17:32;;;;;;;8.07;4.83;;;;;;;7.04;44.10;95632.72;5012740;28;20185;-69
2021/03/01 00:19:58;;;;;;;8.63;5.13;;;;;;;7.11;43.99;95622.47;5012303;28;20950;-71
2021/03/01 00:22:23;;;;;;;10.20;5.23;;;;;;;6.96;44.30;95615.69;5012712;28;20432;-72
2021/03/01 00:24:49;;;;;;;9.40;4.87;;;;;;;6.86;44.90;95615.91;5012591;28;20636;-72
2021/03/01 00:27:14;;;;;;;10.23;5.60;;;;;;;6.99;44.58;95616.91;5012242;28;20208;-71
2021/03/01 00:29:40;;;;;;;7.53;4.90;;;;;;;6.93;44.22;95610.97;5012364;28;20247;-72
2021/03/01 00:32:06;;;;;;;8.07;4.80;;;;;;;7.05;44.47;95607.75;5012106;28;20274;-69
2021/03/01 00:34:31;;;;;;;8.37;4.90;;;;;;;6.87;44.25;95604.22;5012402;28;20177;-69
2021/03/01 00:36:57;;;;;;;10.27;5.17;;;;;;;6.93;44.38;95608.31;5012142;28;20670;-68
2021/03/01 00:39:23;;;;;;;9.83;5.07;;;;;;;6.77;44.45;95601.78;5012219;28;20635;-71
2021/03/01 00:41:48;;;;;;;9.73;5.37;;;;;;;6.89;43.91;95608.13;5012099;28;20264;-68
2021/03/01 00:44:14;;;;;;;7.50;4.60;;;;;;;6.95;43.70;95600.81;5012195;28;20874;-72
2021/03/01 00:46:39;;;;;;;9.47;4.80;;;;;;;6.81;43.99;95603.56;5012376;28;20296;-72
2021/03/01 00:49:05;;;;;;;12.97;4.93;;;;;;;6.94;44.47;95607.22;5012101;28;20176;-72
2021/03/01 00:51:30;;;;;;;9.57;5.67;;;;;;;6.75;43.71;95593.38;5011856;28;20300;-72
2021/03/01 00:53:56;;;;;;;8.17;4.97;;;;;;;6.91;43.10;95583.94;5011926;28;20262;-70
2021/03/01 00:56:21;;;;;;;7.43;4.70;;;;;;;7.00;44.26;95591.94;5010470;28;20193;-72
2021/03/01 00:58:47;;;;;;;6.83;4.83;;;;;;;6.91;43.82;95583.16;5012204;28;20177;-70
2021/03/01 01:01:12;;;;;;;10.90;5.77;;;;;;;6.96;43.85;95583.00;5011893;28;20235;-71
2021/03/01 01:03:38;;;;;;;10.07;5.27;;;;;;;7.05;43.52;95568.69;5011070;28;20181;-72
2021/03/01 01:06:04;;;;;;;7.30;4.33;;;;;;;7.07;43.68;95579.00;5010350;28;20661;-71
2021/03/01 01:08:29;;;;;;;9.37;5.03;;;;;;;6.94;44.01;95578.00;5011664;28;20189;-72
2021/03/01 01:10:55;;;;;;;8.83;5.20;;;;;;;6.89;43.95;95580.78;5010314;28;20228;-69
2021/03/01 01:13:20;;;;;;;7.87;4.50;;;;;;;6.77;44.22;95560.09;5010159;28;20656;-68
2021/03/01 01:15:46;;;;;;;8.80;4.13;;;;;;;6.81;43.75;95568.25;5026493;28;20220;-68
2021/03/01 01:18:11;;;;;;;7.33;4.10;;;;;;;6.60;43.69;95557.34;5012032;28;20189;-72
2021/03/01 01:20:37;;;;;;;5.73;4.43;;;;;;;6.69;43.48;95562.72;5011577;28;20529;-68
2021/03/01 01:23:02;;;;;;;9.83;4.63;;;;;;;6.61;44.04;95543.78;5011796;28;20165;-68
2021/03/01 01:25:28;;;;;;;6.83;4.80;;;;;;;6.67;43.63;95551.63;5011599;28;20165;-68
2021/03/01 01:27:53;;;;;;;8.60;4.80;;;;;;;6.59;43.12;95556.56;5011778;28;20185;-68
2021/03/01 01:30:20;;;;;;;7.53;4.47;;;;;;;6.58;43.49;95546.28;5011371;28;20252;-68
2021/03/01 01:32:46;;;;;;;6.73;4.33;;;;;;;6.63;43.61;95559.41;5010500;28;20203;-68
2021/03/01 01:35:11;;;;;;;5.23;3.87;;;;;;;6.63;43.04;95548.81;4993680;28;20858;-69
2021/03/01 01:37:37;;;;;;;6.40;4.47;;;;;;;6.75;42.84;95553.56;5011501;28;20188;-68
2021/03/01 01:40:04;;;;;;;6.90;4.70;;;;;;;6.63;43.05;95554.88;5011593;28;20192;-69
2021/03/01 01:42:29;;;;;;;7.37;4.40;;;;;;;6.57;42.55;95544.72;5011420;28;20185;-69
2021/03/01 01:44:55;;;;;;;8.63;4.40;;;;;;;6.73;42.48;95545.09;5011523;28;20499;-68
2021/03/01 01:47:21;;;;;;;7.40;4.07;;;;;;;6.66;43.20;95545.53;5010929;28;20185;-68
2021/03/01 01:49:46;;;;;;;8.63;4.80;;;;;;;6.61;43.69;95548.31;5011441;28;20595;-69
2021/03/01 01:52:11;;;;;;;5.67;4.10;;;;;;;6.65;42.46;95541.31;5011031;28;20670;-69
2021/03/01 01:54:37;;;;;;;6.43;3.97;;;;;;;6.49;42.74;95524.97;4993957;28;20181;-69
2021/03/01 01:57:03;;;;;;;7.00;4.37;;;;;;;6.67;42.58;95544.44;5011271;28;20247;-71
2021/03/01 01:59:28;;;;;;;11.23;4.50;;;;;;;6.53;42.47;95543.75;5011427;28;20177;-73
2021/03/01 02:01:54;;;;;;;9.17;4.30;;;;;;;6.69;42.74;95546.81;5010058;28;20557;-69
2021/03/01 02:04:34;;;;;;;9.43;5.73;;;;;;;6.65;41.83;95540.53;4993749;28;20690;-71
2021/03/01 02:07:11;;;;;;;6.47;4.13;;;;;;;6.78;42.74;95542.31;5011225;28;20179;-69
2021/03/01 02:09:57;;;;;;;7.93;4.07;;;;;;;6.56;42.00;95538.59;5011318;28;20447;-69
2021/03/01 02:12:39;;;;;;;6.93;4.50;;;;;;;6.32;42.45;95543.44;5009675;28;20550;-72
2021/03/01 02:15:06;;;;;;;8.80;4.43;;;;;;;6.44;42.59;95541.00;5011423;28;20451;-73
2021/03/01 02:17:31;;;;;;;9.33;5.20;;;;;;;6.25;42.68;95543.84;5014687;28;20424;-72
2021/03/01 02:19:57;;;;;;;8.93;4.57;;;;;;;6.19;43.32;95557.53;5014910;28;20438;-71
2021/03/01 02:22:22;;;;;;;11.20;5.40;;;;;;;6.35;43.73;95545.50;5014594;28;20743;-72
2021/03/01 02:24:54;;;;;;;8.33;4.17;;;;;;;6.16;44.46;95540.34;5014830;28;20173;-70
2021/03/01 02:27:28;;;;;;;9.45;5.10;;;;;;;6.17;44.42;95541.91;4997689;28;20173;-69
2021/03/01 02:29:56;;;;;;;8.40;5.00;;;;;;;6.15;43.61;95544.09;5014758;28;20177;-73
2021/03/01 02:32:21;;;;;;;9.93;4.53;;;;;;;6.38;43.07;95542.22;4997106;28;20499;-69
2021/03/01 02:34:47;;;;;;;7.33;4.50;;;;;;;6.01;43.96;95538.06;4997161;28;20189;-71
2021/03/01 02:37:15;;;;;;;10.80;4.57;;;;;;;6.21;43.93;95539.44;4996837;28;20613;-69
2021/03/01 02:39:43;;;;;;;7.43;4.45;;;;;;;6.36;44.12;95539.09;4997161;28;20183;-73
2021/03/01 02:42:08;;;;;;;7.50;4.72;;;;;;;6.28;43.38;95529.97;5013138;28;20246;-69
2021/03/01 02:44:34;;;;;;;6.10;4.60;;;;;;;6.05;43.68;95529.19;5013354;28;20184;-69
2021/03/01 02:47:00;;;;;;;8.10;4.40;;;;;;;6.02;44.65;95529.03;5013411;28;20181;-68
2021/03/01 02:49:25;;;;;;;5.63;4.40;;;;;;;6.24;43.89;95528.25;5012960;28;20185;-68
2021/03/01 02:51:51;;;;;;;9.53;4.93;;;;;;;6.22;44.99;95523.22;4996697;28;20236;-68
2021/03/01 02:54:17;;;;;;;12.70;5.07;;;;;;;6.03;44.74;95525.28;4996670;28;20647;-68
2021/03/01 02:56:43;;;;;;;8.60;4.95;;;;;;;5.92;44.90;95523.94;5013024;28;20173;-69
2021/03/01 02:59:08;;;;;;;10.10;5.07;;;;;;;6.14;44.72;95516.00;4996319;28;20667;-69
2021/03/01 03:01:34;;;;;;;10.97;5.17;;;;;;;6.02;44.47;95507.81;4996585;28;20176;-69
2021/03/01 03:03:59;;;;;;;6.50;4.80;;;;;;;5.85;44.84;95524.31;4996511;28;20211;-73
2021/03/01 03:06:25;;;;;;;8.43;4.93;;;;;;;5.90;44.75;95515.47;5012557;28;20192;-73
2021/03/01 03:08:51;;;;;;;8.43;4.97;;;;;;;5.91;44.78;95523.16;5012797;28;20173;-72
2021/03/01 03:11:17;;;;;;;7.97;5.30;;;;;;;5.74;45.22;95522.97;5013403;28;20209;-72
2021/03/01 03:13:43;;;;;;;8.05;5.07;;;;;;;5.58;46.70;95523.31;5012751;28;20171;-72
2021/03/01 03:16:09;;;;;;;10.05;5.82;;;;;;;5.69;45.50;95525.75;4995919;28;20188;-70
2021/03/01 03:18:34;;;;;;;9.80;4.83;;;;;;;5.77;45.50;95514.41;5012760;28;20524;-73
2021/03/01 03:21:00;;;;;;;7.97;4.93;;;;;;;5.46;45.81;95525.69;5012138;28;20184;-72
2021/03/01 03:23:26;;;;;;;7.33;4.57;;;;;;;5.46;46.14;95522.25;5013692;28;20204;-72
2021/03/01 03:25:52;;;;;;;7.07;4.63;;;;;;;5.46;46.02;95525.69;5013045;28;20618;-72
2021/03/01 03:28:17;;;;;;;12.07;5.03;;;;;;;5.28;46.91;95510.69;5013199;28;20169;-70
2021/03/01 03:30:43;;;;;;;10.80;5.60;;;;;;;5.20;46.73;95514.78;5013308;28;20209;-73
2021/03/01 03:33:08;;;;;;;7.93;5.23;;;;;;;5.20;47.20;95506.84;5013766;28;20656;-72
2021/03/01 03:35:34;;;;;;;11.03;4.97;;;;;;;5.28;46.53;95522.06;4996024;28;20173;-70
2021/03/01 03:38:29;;;;;;;9.50;5.83;;;;;;;5.27;46.39;95514.41;4995694;28;20690;-72
2021/03/01 03:40:57;;;;;;;10.48;5.95;;;;;;;5.37;46.87;95519.50;5013132;28;20188;-73
2021/03/01 03:43:23;;;;;;;10.13;6.35;;;;;;;4.97;47.82;95518.44;5013264;28;20177;-69
2021/03/01 03:45:50;;;;;;;8.33;4.97;;;;;;;5.19;47.21;95518.53;4995428;28;20265;-69
2021/03/01 03:48:18;;;;;;;8.20;4.95;;;;;;;5.30;46.85;95519.13;4995797;28;20172;-69
2021/03/01 03:50:43;;;;;;;9.27;5.22;;;;;;;5.42;46.66;95527.34;4995539;28;20205;-68
2021/03/01 03:53:12;;;;;;;11.87;5.43;;;;;;;5.46;46.39;95515.09;4995434;28;20185;-69
2021/03/01 03:55:40;;;;;;;10.85;5.20;;;;;;;5.38;47.62;95502.53;5011879;28;20212;-69
2021/03/01 03:58:07;;;;;;;8.73;5.65;;;;;;;5.30;47.08;95513.81;5011670;28;20188;-73
2021/03/01 04:00:34;;;;;;;9.20;6.13;;;;;;;5.41;46.37;95512.53;5011517;28;20200;-72
2021/03/01 04:03:04;;;;;;;9.90;5.07;;;;;;;5.39;47.02;95513.91;5011514;28;20188;-73
2021/03/01 04:05:30;;;;;;;11.35;4.90;;;;;;;5.55;46.44;95518.56;5011772;28;20183;-73
2021/03/01 04:07:56;;;;;;;11.77;5.90;;;;;;;5.42;46.55;95516.75;4995086;28;20181;-73
2021/03/01 04:10:21;;;;;;;8.70;5.27;;;;;;;5.46;46.38;95512.44;4995336;28;20643;-73
2021/03/01 04:12:48;;;;;;;12.27;5.57;;;;;;;5.67;46.17;95517.28;5011237;28;20239;-71
2021/03/01 04:15:15;;;;;;;11.40;5.53;;;;;;;5.61;46.75;95513.97;5012751;28;20180;-69
2021/03/01 04:17:41;;;;;;;9.77;5.18;;;;;;;5.69;46.31;95515.91;5011103;28;20184;-69
2021/03/01 04:20:07;;;;;;;11.32;5.97;;;;;;;5.60;46.11;95520.34;5011454;28;20211;-73
2021/03/01 04:22:33;;;;;;;11.27;5.47;;;;;;;5.54;45.50;95526.84;5012238;28;20272;-71
2021/03/01 04:24:58;;;;;;;9.10;5.40;;;;;;;5.59;45.85;95521.44;4995001;28;20176;-73
2021/03/01 04:27:24;;;;;;;9.47;5.33;;;;;;;5.67;46.38;95526.03;4994996;28;20180;-69
2021/03/01 04:29:49;;;;;;;9.30;5.50;;;;;;;5.89;46.16;95522.63;4994716;28;20184;-69
2021/03/01 04:32:15;;;;;;;8.27;4.90;;;;;;;6.02;45.50;95524.50;5012298;28;20205;-69
2021/03/01 04:34:41;;;;;;;9.57;5.23;;;;;;;5.94;44.92;95527.06;4994792;28;20177;-69
2021/03/01 04:37:06;;;;;;;10.67;5.77;;;;;;;5.92;45.39;95523.94;4994766;28;20557;-70
2021/03/01 04:39:32;;;;;;;11.40;5.80;;;;;;;5.90;45.91;95526.88;5011900;28;20192;-69
2021/03/01 04:41:57;;;;;;;8.73;5.50;;;;;;;5.54;46.56;95524.19;5011154;28;20640;-71
2021/03/01 04:44:22;;;;;;;9.83;5.23;;;;;;;5.39;48.23;95516.53;5011938;28;20165;-68
2021/03/01 04:46:54;;;;;;;9.07;5.43;;;;;;;5.61;46.78;95526.44;4994620;28;20169;-69
2021/03/01 04:49:23;;;;;;;10.25;6.25;;;;;;;5.49;47.38;95519.78;5010701;28;20193;-70
2021/03/01 04:51:48;;;;;;;10.27;6.18;;;;;;;5.49;47.75;95521.63;4994404;28;20606;-71
2021/03/01 04:54:14;;;;;;;9.23;5.87;;;;;;;5.62;47.61;95520.84;5011336;28;20259;-71
2021/03/01 04:56:43;;;;;;;11.90;6.13;;;;;;;5.74;47.04;95515.81;5010545;28;20252;-70
2021/03/01 04:59:13;;;;;;;9.98;6.47;;;;;;;5.69;46.58;95526.53;5010930;28;20271;-69
2021/03/01 05:01:39;;;;;;;8.70;5.82;;;;;;;5.84;46.13;95505.00;5010413;28;20184;-72
2021/03/01 05:04:05;;;;;;;10.18;6.05;;;;;;;5.82;46.68;95525.69;5010679;28;20177;-72
2021/03/01 05:06:30;;;;;;;12.10;6.80;;;;;;;5.90;46.33;95526.88;5011404;28;20173;-69
2021/03/01 05:08:56;;;;;;;13.17;6.40;;;;;;;5.93;46.52;95536.88;5010528;28;20185;-73
2021/03/01 05:11:32;;;;;;;14.47;6.43;;;;;;;5.81;47.37;95529.44;5011402;28;20343;-69
2021/03/01 05:13:58;;;;;;;13.20;7.53;;;;;;;5.79;47.68;95538.78;5010618;28;20251;-70
2021/03/01 05:16:25;;;;;;;12.93;6.68;;;;;;;5.73;47.17;95526.72;5011465;28;20261;-69
2021/03/01 05:18:50;;;;;;;12.38;7.47;;;;;;;5.65;47.43;95540.66;5010502;28;20189;-69
2021/03/01 05:21:16;;;;;;;15.60;8.03;;;;;;;5.69;46.91;95539.00;5011289;28;20177;-69
2021/03/01 05:23:41;;;;;;;14.53;7.63;;;;;;;5.56;47.99;95545.88;5011341;28;20176;-69
2021/03/01 05:26:07;;;;;;;14.03;8.20;;;;;;;5.08;49.06;95545.50;5011704;28;20224;-69
2021/03/01 05:28:34;;;;;;;12.83;7.63;;;;;;;5.19;48.81;95549.53;5010366;28;20184;-68
2021/03/01 05:30:59;;;;;;;14.38;8.73;;;;;;;5.24;48.45;95544.13;4994218;28;20201;-69
2021/03/01 05:33:25;;;;;;;13.63;7.67;;;;;;;5.38;48.20;95547.53;5011206;28;20276;-69
2021/03/01 05:35:50;;;;;;;14.30;8.10;;;;;;;5.30;49.15;95554.31;5011581;28;20181;-71
2021/03/01 05:38:16;;;;;;;16.77;8.83;;;;;;;5.40;49.57;95553.34;5011264;28;20161;-69
2021/03/01 05:40:41;;;;;;;14.40;7.93;;;;;;;5.65;49.44;95556.56;5011605;28;20276;-69
2021/03/01 05:43:07;;;;;;;13.00;7.97;;;;;;;5.68;48.25;95558.63;5011370;28;20660;-69
2021/03/01 05:45:32;;;;;;;16.03;8.27;;;;;;;5.73;48.47;95555.88;4994071;28;20165;-70
2021/03/01 05:47:58;;;;;;;16.93;7.53;;;;;;;5.81;48.38;95555.16;4993535;28;20224;-73
2021/03/01 05:50:23;;;;;;;13.60;7.87;;;;;;;5.83;48.07;95547.69;4995673;28;20235;-73
2021/03/01 05:52:49;;;;;;;16.97;7.97;;;;;;;5.77;48.64;95547.00;5013797;28;20248;-68
2021/03/01 05:55:15;;;;;;;11.97;8.03;;;;;;;5.87;48.96;95548.66;5013935;28;20176;-68
2021/03/01 05:57:40;;;;;;;13.30;7.13;;;;;;;5.95;48.52;95548.00;5015374;28;20165;-73
2021/03/01 06:00:07;;;;;;;13.13;7.43;;;;;;;6.16;48.69;95544.88;5013774;28;20180;-73
2021/03/01 06:02:32;;;;;;;11.15;7.45;;;;;;;6.31;48.16;95553.25;5015030;28;20189;-69
2021/03/01 06:04:58;;;;;;;13.33;6.90;;;;;;;6.26;47.71;95542.78;5013775;28;20200;-76
2021/03/01 06:07:23;;;;;;;14.87;9.03;;;;;;;6.30;47.91;95542.97;5015218;28;20655;-68
2021/03/01 06:09:49;;;;;;;14.30;8.60;;;;;;;6.44;47.57;95541.00;5014798;28;20235;-70
2021/03/01 06:12:14;;;;;;;13.73;8.47;;;;;;;6.58;47.81;95541.75;5013789;28;20205;-72
2021/03/01 06:14:40;;;;;;;10.83;7.60;;;;;;;6.49;47.26;95545.41;5014779;28;20268;-69
2021/03/01 06:17:16;;;;;;;14.07;8.10;;;;;;;6.36;46.94;95525.84;5015065;28;20189;-69
2021/03/01 06:19:54;;;;;;;12.57;7.43;;;;;;;6.56;46.35;95527.97;5014689;28;20207;-70
2021/03/01 06:22:29;;;;;;;18.07;8.07;;;;;;;6.47;46.78;95521.06;5013642;28;20430;-69
2021/03/01 06:25:11;;;;;;;13.20;7.37;;;;;;;6.69;46.65;95522.91;5014586;28;20423;-72
2021/03/01 06:27:58;;;;;;;11.60;7.50;;;;;;;6.97;46.21;95508.38;5014836;28;20416;-69
2021/03/01 06:30:28;;;;;;;12.67;7.93;;;;;;;6.94;46.10;95508.19;5007220;28;20462;-69
2021/03/01 06:33:09;;;;;;;13.30;8.33;;;;;;;6.66;46.83;95513.69;5012638;28;20439;-71
2021/03/01 06:35:37;;;;;;;14.60;8.07;;;;;;;6.75;45.68;95513.75;5014598;28;20486;-69
2021/03/01 06:38:27;;;;;;;14.27;7.57;;;;;;;8.78;76.61;95516.81;5029345;28;20837;-70
2021/03/01 06:41:18;;;;;;;12.97;7.80;;;;;;;10.26;54.34;95506.91;5028994;28;20889;-71
2021/03/01 06:43:55;;;;;;;19.03;8.13;;;;;;;10.08;40.46;95512.38;5014232;28;20446;-72
2021/03/01 06:46:28;;;;;;;13.53;8.10;;;;;;;8.53;42.36;95505.94;5014444;28;20957;-71
2021/03/01 06:48:53;;;;;;;16.87;7.90;;;;;;;8.34;43.77;95495.56;5012955;28;20420;-72
2021/03/01 06:51:20;;;;;;;12.77;7.77;;;;;;;8.48;42.26;95514.06;5010263;28;20851;-72
2021/03/01 06:53:46;;;;;;;11.87;8.50;;;;;;;7.91;43.96;95525.66;5013624;28;20640;-71
2021/03/01 06:56:14;;;;;;;18.23;7.50;;;;;;;7.85;43.94;95502.94;5013872;28;20499;-73
2021/03/01 06:58:46;;;;;;;12.00;7.00;;;;;;;8.07;43.71;95525.16;5013953;28;20216;-71
2021/03/01 07:01:15;;;;;;;13.93;8.40;;;;;;;7.86;43.90;95540.97;5010347;28;20420;-69
2021/03/01 07:03:42;;;;;;;15.60;8.37;;;;;;;7.57;45.30;95541.53;5013677;28;20837;-71
2021/03/01 07:06:08;;;;;;;12.77;7.90;;;;;;;7.55;45.35;95531.22;5013819;28;20432;-71
2021/03/01 07:08:38;;;;;;;13.53;8.27;;;;;;;7.57;44.40;95544.97;5013157;28;20494;-67
2021/03/01 07:11:20;;;;;;;19.20;8.67;;;;;;;7.48;46.16;95549.47;5013616;28;20219;-69
2021/03/01 07:13:45;;;;;;;16.57;8.00;;;;;;;7.54;45.65;95544.81;5010906;28;20438;-69
2021/03/01 07:16:11;;;;;;;16.50;8.57;;;;;;;7.54;45.07;95552.78;5012297;28;20416;-68
2021/03/01 07:18:37;;;;;;;15.00;9.13;;;;;;;7.40;45.40;95560.84;5010237;28;20228;-68
2021/03/01 07:21:02;;;;;;;14.83;8.17;;;;;;;7.52;45.09;95558.41;4995755;28;20682;-68
2021/03/01 07:23:28;;;;;;;12.23;8.10;;;;;;;7.61;46.25;95563.75;5012129;28;20243;-68
2021/03/01 07:25:53;;;;;;;14.43;8.77;;;;;;;7.44;45.37;95551.19;5012004;28;20568;-68
2021/03/01 07:28:19;;;;;;;13.73;8.03;;;;;;;7.53;45.94;95565.28;5012003;28;20180;-68
2021/03/01 07:30:47;;;;;;;17.37;8.97;;;;;;;7.87;45.41;95569.13;5012165;28;20243;-72
2021/03/01 07:33:13;;;;;;;11.77;7.90;;;;;;;7.88;45.29;95562.72;5012249;28;20177;-69
2021/03/01 07:35:40;;;;;;;16.23;8.43;;;;;;;7.86;45.19;95568.34;5013141;28;20428;-68
2021/03/01 07:38:05;;;;;;;14.20;8.20;;;;;;;7.99;45.54;95573.81;5013138;28;20856;-69
2021/03/01 07:40:31;;;;;;;97.17;11.60;;;;;;;8.11;45.28;95564.13;4995262;28;20424;-72
2021/03/01 07:42:57;;;;;;;12.67;7.93;;;;;;;8.04;45.16;95571.03;4995558;28;20259;-70
2021/03/01 07:45:22;;;;;;;14.60;7.87;;;;;;;8.01;45.04;95575.06;5011785;28;20207;-67
2021/03/01 07:47:48;;;;;;;13.53;7.90;;;;;;;8.20;45.07;95575.56;5012161;28;20199;-69
2021/03/01 07:50:31;;;;;;;11.70;7.47;;;;;;;8.27;44.13;95574.31;5012952;28;20173;-69
2021/03/01 07:52:56;;;;;;;12.73;7.73;;;;;;;8.20;44.89;95577.44;5012006;28;20220;-69
2021/03/01 07:55:22;;;;;;;27.77;11.23;;;;;;;8.41;44.44;95575.75;5011542;28;20412;-70
2021/03/01 07:58:05;;;;;;;15.53;8.43;;;;;;;8.22;44.28;95561.94;5013178;28;20181;-71
2021/03/01 08:00:34;;;;;;;11.80;7.87;;;;;;;8.16;45.05;95566.63;5012640;28;20411;-70
2021/03/01 08:03:01;;;;;;;20.23;8.20;;;;;;;8.33;44.85;95559.75;5012673;28;20416;-69
2021/03/01 08:05:30;;;;;;;15.10;7.53;;;;;;;8.39;44.34;95550.56;5027991;28;20805;-69
2021/03/01 08:07:57;;;;;;;55.43;10.63;;;;;;;8.41;44.51;95556.34;5012891;28;20424;-69
2021/03/01 08:10:28;;;;;;;21.00;9.63;;;;;;;8.14;45.05;95558.19;5012422;28;20460;-69
2021/03/01 08:13:04;;;;;;;14.87;7.83;;;;;;;8.04;45.01;95558.50;5012410;28;20919;-68
2021/03/01 08:15:34;;;;;;;11.77;7.57;;;;;;;7.98;44.73;95574.94;5011338;28;20511;-69
2021/03/01 08:18:00;;;;;;;13.73;8.77;;;;;;;8.18;44.88;95572.41;5011288;28;20470;-68
2021/03/01 08:20:28;;;;;;;15.13;7.87;;;;;;;8.09;45.76;95569.00;5012285;28;20427;-69
2021/03/01 08:23:05;;;;;;;17.90;8.20;;;;;;;8.18;45.00;95561.78;5012588;28;20173;-69
2021/03/01 08:25:51;;;;;;;21.77;8.43;;;;;;;8.27;45.78;95569.00;5012065;28;20856;-69
2021/03/01 08:28:20;;;;;;;13.73;7.93;;;;;;;8.17;44.93;95562.09;5012345;28;20400;-68
2021/03/01 08:30:55;;;;;;;15.47;8.43;;;;;;;8.22;44.77;95549.44;5012192;28;20456;-69
2021/03/01 08:33:24;;;;;;;13.00;7.50;;;;;;;8.34;45.03;95551.47;5012374;28;20416;-69
2021/03/01 08:35:53;;;;;;;16.27;7.90;;;;;;;8.70;44.74;95542.38;5012168;28;20439;-69
2021/03/01 08:38:45;;;;;;;13.17;7.30;;;;;;;8.83;43.70;95543.28;5010884;28;20428;-69
2021/03/01 08:41:14;;;;;;;12.40;6.83;;;;;;;8.96;43.40;95550.28;5005071;28;20404;-69
2021/03/01 08:43:44;;;;;;;12.70;7.17;;;;;;;9.13;43.29;95555.56;5011739;28;20474;-70
2021/03/01 08:46:15;;;;;;;12.90;7.33;;;;;;;9.33;41.95;95554.09;5012187;28;20436;-73
2021/03/01 08:48:48;;;;;;;13.50;7.40;;;;;;;9.43;42.54;95547.63;5011863;28;20798;-73
2021/03/01 08:51:13;;;;;;;11.77;7.47;;;;;;;9.53;41.23;95552.56;5011927;28;20476;-68
2021/03/01 08:53:39;;;;;;;12.47;7.53;;;;;;;9.45;40.66;95550.75;5011857;28;20426;-69
2021/03/01 08:56:05;;;;;;;9.87;7.40;;;;;;;9.60;41.06;95536.09;5012067;28;20177;-69
2021/03/01 08:58:33;;;;;;;15.93;7.23;;;;;;;9.60;40.43;95552.88;5012046;28;20678;-72
2021/03/01 09:01:06;;;;;;;10.10;6.50;;;;;;;9.72;41.23;95544.94;4994733;28;20179;-69
2021/03/01 09:03:35;;;;;;;9.97;6.23;;;;;;;9.79;41.12;95541.78;5011984;28;20463;-69
2021/03/01 09:06:19;;;;;;;11.23;6.47;;;;;;;9.90;39.75;95528.84;5011649;28;20416;-70
2021/03/01 09:09:11;;;;;;;9.67;6.27;;;;;;;10.12;40.23;95536.53;5011739;28;20427;-69
2021/03/01 09:11:36;;;;;;;12.10;7.10;;;;;;;10.14;38.42;95528.97;5008141;28;20475;-69
2021/03/01 09:14:04;;;;;;;15.67;7.27;;;;;;;10.21;39.56;95545.25;5010479;28;20728;-69
2021/03/01 09:16:30;;;;;;;12.47;7.00;;;;;;;10.30;39.40;95534.53;5010759;28;20736;-69
2021/03/01 09:18:59;;;;;;;17.57;6.50;;;;;;;10.32;39.04;95535.78;5011443;28;20490;-69
2021/03/01 09:21:26;;;;;;;12.43;6.53;;;;;;;10.42;37.92;95528.44;5011665;28;20948;-69
2021/03/01 09:23:52;;;;;;;8.90;5.63;;;;;;;10.54;37.95;95537.28;5011085;28;20495;-69
2021/03/01 09:26:36;;;;;;;10.33;5.90;;;;;;;10.49;36.58;95526.03;5011177;28;20412;-73
2021/03/01 09:29:08;;;;;;;11.23;5.93;;;;;;;10.71;38.01;95530.22;5011402;28;20412;-71
2021/03/01 09:31:52;;;;;;;8.67;5.83;;;;;;;10.66;39.44;95539.22;5011549;28;20469;-69
2021/03/01 09:34:18;;;;;;;19.13;6.83;;;;;;;10.26;38.14;95534.38;5011494;28;20455;-72
2021/03/01 09:36:48;;;;;;;12.07;6.37;;;;;;;10.35;39.25;95537.00;5011640;28;20412;-69
2021/03/01 09:39:17;;;;;;;8.47;5.73;;;;;;;10.42;37.62;95531.13;5010171;28;20423;-69
2021/03/01 09:41:42;;;;;;;12.03;6.13;;;;;;;10.82;37.40;95521.47;5011522;28;20428;-72
2021/03/01 09:44:08;;;;;;;12.87;6.00;;;;;;;11.20;36.72;95524.97;5011235;28;20423;-70
2021/03/01 09:46:33;;;;;;;12.57;5.87;;;;;;;11.48;35.65;95536.59;5011581;28;20546;-71
2021/03/01 09:49:04;;;;;;;12.17;5.17;;;;;;;11.56;36.02;95535.72;4993740;28;20203;-71
2021/03/01 09:51:30;;;;;;;5.67;4.20;;;;;;;11.46;34.41;95536.16;5010167;28;20224;-71
2021/03/01 09:54:08;;;;;;;9.43;5.80;;;;;;;11.05;33.90;95545.09;5011396;28;20424;-69
2021/03/01 09:56:38;;;;;;;8.47;4.40;;;;;;;10.97;34.75;95536.09;5009676;28;20480;-69
2021/03/01 09:59:03;;;;;;;17.20;4.90;;;;;;;11.01;34.71;95541.56;5011184;28;20439;-70
2021/03/01 10:01:29;;;;;;;7.73;4.27;;;;;;;11.06;34.15;95544.03;5011403;28;20431;-69
2021/03/01 10:03:54;;;;;;;11.17;4.97;;;;;;;11.35;33.96;95538.47;5011369;28;20598;-69
2021/03/01 10:06:34;;;;;;;10.00;5.67;;;;;;;11.78;32.91;95545.13;5011209;28;20209;-69
2021/03/01 10:09:07;;;;;;;9.87;4.80;;;;;;;11.75;32.46;95543.16;5011018;28;20681;-71
2021/03/01 10:11:33;;;;;;;9.13;5.17;;;;;;;11.63;33.42;95543.16;5011408;28;20467;-70
2021/03/01 10:14:06;;;;;;;8.23;5.20;;;;;;;11.20;32.56;95539.13;5009835;28;20446;-69
2021/03/01 10:16:36;;;;;;;8.87;4.97;;;;;;;10.88;34.45;95526.59;5011401;28;20181;-69
2021/03/01 10:19:14;;;;;;;9.37;5.90;;;;;;;11.01;33.57;95534.31;5010917;28;20420;-70
2021/03/01 10:21:40;;;;;;;11.27;5.70;;;;;;;10.98;33.99;95526.94;5011082;28;20439;-69
2021/03/01 10:24:07;;;;;;;8.20;5.10;;;;;;;11.18;33.13;95530.66;5010814;28;20428;-69
2021/03/01 10:26:48;;;;;;;8.93;4.53;;;;;;;11.24;33.71;95536.56;5011127;28;20469;-69
2021/03/01 10:29:13;;;;;;;15.90;5.60;;;;;;;11.47;33.30;95528.91;5010990;28;20495;-69
2021/03/01 10:31:39;;;;;;;8.97;5.63;;;;;;;11.51;33.43;95530.56;5011070;28;20471;-69
2021/03/01 10:34:14;;;;;;;10.73;5.67;;;;;;;11.26;34.22;95524.44;5009518;28;20695;-69
2021/03/01 10:36:39;;;;;;;12.43;6.60;;;;;;;11.24;34.01;95524.00;5012882;28;20719;-68
2021/03/01 10:39:15;;;;;;;8.40;5.03;;;;;;;11.78;34.56;95520.28;5014045;28;20491;-69
2021/03/01 10:41:45;;;;;;;8.20;5.13;;;;;;;12.00;33.13;95517.16;5014475;28;20177;-68
2021/03/01 10:44:12;;;;;;;7.80;5.23;;;;;;;12.45;32.28;95502.72;5012536;28;20428;-69
2021/03/01 10:46:46;;;;;;;11.60;5.47;;;;;;;12.57;33.01;95499.22;5014471;28;20438;-69
2021/03/01 10:49:28;;;;;;;11.90;6.07;;;;;;;12.07;31.48;95490.59;5013998;28;20908;-69
2021/03/01 10:51:55;;;;;;;10.83;5.40;;;;;;;11.77;32.61;95498.09;5013102;28;20479;-69
2021/03/01 10:54:21;;;;;;;7.87;4.93;;;;;;;11.77;32.46;95502.66;5013944;28;20432;-71
2021/03/01 10:56:46;;;;;;;9.23;5.27;;;;;;;11.72;33.14;95501.00;5014328;28;20475;-70
2021/03/01 10:59:12;;;;;;;13.60;5.80;;;;;;;11.53;33.78;95501.59;5013890;28;20832;-69
2021/03/01 11:01:42;;;;;;;11.17;5.57;;;;;;;11.45;33.41;95499.03;5013945;28;20278;-69
2021/03/01 11:04:08;;;;;;;9.43;5.97;;;;;;;11.39;34.14;95496.59;5013970;28;20189;-70
2021/03/01 11:06:33;;;;;;;10.43;5.37;;;;;;;11.52;34.78;95483.22;5012475;28;20526;-70
2021/03/01 11:09:00;;;;;;;10.47;6.13;;;;;;;11.47;33.77;95489.56;5013953;28;20424;-69
2021/03/01 11:11:25;;;;;;;10.17;6.43;;;;;;;11.34;35.16;95488.78;5012305;28;20286;-69
2021/03/01 11:13:51;;;;;;;12.20;5.47;;;;;;;11.27;34.07;95472.50;5013948;28;20458;-69
2021/03/01 11:16:16;;;;;;;9.13;5.70;;;;;;;11.41;34.22;95476.75;5013465;28;20231;-72
2021/03/01 11:18:42;;;;;;;9.33;5.67;;;;;;;11.30;34.56;95481.78;5013565;28;20612;-68
2021/03/01 11:21:07;;;;;;;9.53;6.37;;;;;;;11.37;34.22;95479.31;5013549;28;20177;-70
2021/03/01 11:23:33;;;;;;;10.20;6.47;;;;;;;11.14;34.51;95476.31;5013712;28;20173;-69
2021/03/01 11:25:58;;;;;;;11.97;6.40;;;;;;;10.96;35.66;95473.06;5013421;28;20177;-70
2021/03/01 11:28:24;;;;;;;12.00;6.93;;;;;;;10.96;35.36;95475.75;5013619;28;20183;-70
2021/03/01 11:30:50;;;;;;;10.03;6.37;;;;;;;10.76;36.39;95468.56;5013573;28;20583;-72
2021/03/01 11:33:16;;;;;;;13.23;6.23;;;;;;;10.63;35.35;95469.69;5013135;28;20180;-69
2021/03/01 11:35:42;;;;;;;8.33;5.73;;;;;;;10.67;36.34;95473.25;5011943;28;20423;-69
2021/03/01 11:38:07;;;;;;;9.67;6.40;;;;;;;10.49;36.11;95465.38;5013151;28;20176;-70